Time;durP1;ratioP1;P1;durP2;ratioP2;P2;SDS_P1;SDS_P2;PMS_P1;PMS_P2;Temp;Humidity;BMP_temperature;BMP_pressure;BME280_temperature;BME280_humidity;BME280_pressure;Samples;Min_cycle;Max_cycle;Signal;HPM_P1;HPM_P2
2022/09/24 00:00:32;;;;;;;12.90;10.17;;;;;;;12.97;94.30;97871.91;4160462;28;20637;-81
2022/09/24 00:02:35;;;;;;;11.77;10.57;;;;;;;12.96;94.32;97872.88;4181141;28;21285;-82
2022/09/24 00:04:38;;;;;;;12.10;10.80;;;;;;;12.98;92.96;97870.97;4179785;28;20662;-82
2022/09/24 00:06:43;;;;;;;13.83;11.53;;;;;;;12.99;94.36;97879.63;4175283;28;21074;-83
2022/09/24 00:08:47;;;;;;;13.20;11.87;;;;;;;12.97;93.17;97871.91;4174734;28;20645;-81
2022/09/24 00:10:51;;;;;;;16.37;14.67;;;;;;;12.98;93.53;97867.53;4192086;28;21292;-82
2022/09/24 00:12:55;;;;;;;19.87;16.07;;;;;;;12.98;94.05;97867.53;4174576;28;21224;-82
2022/09/24 00:14:58;;;;;;;24.27;21.63;;;;;;;12.98;93.94;97868.34;4171173;28;20706;-82
2022/09/24 00:17:00;;;;;;;23.50;21.00;;;;;;;12.99;94.75;97866.53;4192487;28;20680;-81
2022/09/24 00:19:04;;;;;;;26.63;23.57;;;;;;;12.98;94.50;97863.09;4190496;28;21287;-82
2022/09/24 00:21:18;;;;;;;24.73;22.03;;;;;;;12.99;94.56;97863.94;4193704;28;20648;-82
2022/09/24 00:23:21;;;;;;;29.00;25.20;;;;;;;12.99;94.16;97858.69;4169586;28;21231;-82
2022/09/24 00:27:46;;;;;;;31.83;28.53;;;;;;;12.96;95.14;97846.69;4179846;28;21108;-82
2022/09/24 00:29:49;;;;;;;30.93;27.63;;;;;;;12.98;94.94;97849.19;4174630;28;20685;-82
2022/09/24 00:31:53;;;;;;;33.37;29.27;;;;;;;13.00;94.27;97845.47;4169649;28;20670;-82
2022/09/24 00:33:57;;;;;;;30.93;27.17;;;;;;;12.99;95.34;97849.06;4147640;28;20653;-82
2022/09/24 00:36:01;;;;;;;28.40;25.33;;;;;;;13.00;94.65;97850.72;4185589;28;21238;-82
2022/09/24 00:38:05;;;;;;;28.20;25.30;;;;;;;12.99;94.73;97848.22;4160663;28;20636;-82
2022/09/24 00:40:09;;;;;;;31.57;25.40;;;;;;;12.97;94.12;97843.09;4162595;28;20675;-82
2022/09/24 00:42:12;;;;;;;28.40;25.40;;;;;;;12.96;94.29;97841.47;4178019;28;20629;-81
2022/09/24 00:44:52;;;;;;;21.27;19.07;;;;;;;12.98;94.24;97841.34;4179692;28;20653;-81
2022/09/24 00:46:57;;;;;;;17.63;15.83;;;;;;;12.96;93.57;97833.63;4166185;28;20679;-81
2022/09/24 00:49:02;;;;;;;23.00;20.53;;;;;;;12.94;94.81;97827.66;4175904;28;20751;-82
2022/09/24 00:51:05;;;;;;;21.37;18.67;;;;;;;12.96;94.06;97831.00;4172908;28;20642;-82
2022/09/24 00:53:12;;;;;;;20.57;18.37;;;;;;;12.94;93.71;97830.28;4175707;28;20696;-82
2022/09/24 00:55:15;;;;;;;18.70;16.77;;;;;;;12.94;94.64;97830.28;4176499;28;20679;-81
2022/09/24 00:57:18;;;;;;;19.40;15.50;;;;;;;12.94;94.75;97832.88;4171145;28;20670;-82
2022/09/24 00:59:23;;;;;;;16.83;15.13;;;;;;;12.95;95.08;97837.19;4175675;28;20712;-83
2022/09/24 01:01:26;;;;;;;17.13;15.33;;;;;;;12.95;95.45;97836.34;4176815;28;20728;-81
2022/09/24 01:03:32;;;;;;;16.30;13.73;;;;;;;12.95;94.03;97836.34;4184913;28;21282;-82
2022/09/24 01:05:35;;;;;;;14.20;12.80;;;;;;;12.96;95.20;97830.16;4171087;28;20646;-82
2022/09/24 01:07:38;;;;;;;14.60;13.17;;;;;;;12.95;94.04;97823.28;4196415;28;20680;-82
2022/09/24 01:09:41;;;;;;;16.50;14.80;;;;;;;12.95;94.82;97815.41;4178899;28;20755;-81
2022/09/24 01:11:48;;;;;;;15.17;13.57;;;;;;;12.93;95.46;97818.16;4191675;28;21058;-82
2022/09/24 01:14:13;;;;;;;14.10;12.60;;;;;;;12.90;95.73;97817.56;4155222;28;20671;-81
2022/09/24 01:16:25;;;;;;;13.57;12.20;;;;;;;12.89;94.13;97811.50;4169117;28;21225;-82
2022/09/24 01:18:35;;;;;;;13.03;11.77;;;;;;;12.89;95.04;97803.66;4170014;28;21215;-82
2022/09/24 01:20:56;;;;;;;12.40;11.10;;;;;;;12.88;94.01;97799.34;4183195;28;20648;-81
2022/09/24 01:23:11;;;;;;;12.07;10.87;;;;;;;12.88;94.61;97807.22;4185433;28;20652;-82
2022/09/24 01:25:20;;;;;;;11.33;10.10;;;;;;;12.84;94.37;97797.97;4175915;28;20641;-82
2022/09/24 01:27:37;;;;;;;11.97;10.63;;;;;;;12.84;95.47;97797.16;4162827;28;20692;-82
2022/09/24 01:29:48;;;;;;;10.67;9.67;;;;;;;12.83;95.59;97790.25;4180700;28;20634;-82
2022/09/24 01:31:54;;;;;;;10.50;9.50;;;;;;;12.85;94.71;97793.56;4178247;28;20675;-82
2022/09/24 01:33:59;;;;;;;11.20;10.00;;;;;;;12.85;94.94;97797.03;4177403;28;20672;-82
2022/09/24 01:36:07;;;;;;;11.03;9.93;;;;;;;12.87;94.04;97789.00;4174518;28;21013;-82
2022/09/24 01:38:14;;;;;;;10.83;9.83;;;;;;;12.85;94.56;97786.56;4177039;28;20651;-82
2022/09/24 01:40:18;;;;;;;10.97;9.83;;;;;;;12.84;94.80;97787.50;4167367;28;20634;-82
2022/09/24 01:42:22;;;;;;;11.03;9.97;;;;;;;12.80;94.78;97788.66;4200624;28;20632;-82
2022/09/24 01:44:25;;;;;;;10.33;9.17;;;;;;;12.81;95.42;97782.47;4182674;28;21291;-82
2022/09/24 01:46:30;;;;;;;11.70;10.30;;;;;;;12.80;94.29;97772.97;4185678;28;20715;-82
2022/09/24 01:48:36;;;;;;;10.23;9.33;;;;;;;12.81;94.56;97765.97;4185363;28;20665;-82
2022/09/24 01:50:43;;;;;;;10.90;9.80;;;;;;;12.80;95.48;97772.97;4172390;28;20646;-82
2022/09/24 01:52:51;;;;;;;10.20;9.30;;;;;;;12.80;94.36;97777.38;4176817;28;20657;-82
2022/09/24 01:54:55;;;;;;;12.63;10.10;;;;;;;12.80;95.10;97775.56;4166443;28;20741;-82
2022/09/24 01:57:03;;;;;;;13.67;9.33;;;;;;;12.80;95.64;97775.56;4181413;28;20665;-82
2022/09/24 01:59:11;;;;;;;10.70;9.60;;;;;;;12.80;94.54;97774.75;4179781;28;20650;-82
2022/09/24 02:01:17;;;;;;;12.17;9.40;;;;;;;12.78;95.39;97772.28;4162571;28;20676;-82
2022/09/24 02:03:27;;;;;;;10.97;9.87;;;;;;;12.75;95.59;97772.53;4169126;28;20685;-82
2022/09/24 02:05:33;;;;;;;10.30;8.87;;;;;;;12.73;95.76;97766.59;4177869;28;21084;-82
2022/09/24 02:07:39;;;;;;;11.17;9.57;;;;;;;12.73;95.62;97768.34;4176792;28;20640;-81
2022/09/24 02:09:43;;;;;;;10.50;9.37;;;;;;;12.72;96.00;97767.53;4177229;28;20621;-81
2022/09/24 02:11:49;;;;;;;10.97;9.87;;;;;;;12.73;96.15;97766.59;4173613;28;20654;-81
2022/09/24 02:13:55;;;;;;;10.00;9.00;;;;;;;12.71;95.85;97758.00;4156019;28;20738;-82
2022/09/24 02:16:00;;;;;;;13.77;10.00;;;;;;;12.71;95.79;97757.19;4171190;28;20682;-81
2022/09/24 02:18:07;;;;;;;11.03;9.40;;;;;;;12.72;94.93;97761.47;4175084;28;21211;-82
2022/09/24 02:20:14;;;;;;;11.13;9.23;;;;;;;12.70;94.38;97758.13;4167668;28;21248;-82
2022/09/24 02:22:17;;;;;;;10.90;9.57;;;;;;;12.67;94.19;97760.19;4190889;28;21165;-82
2022/09/24 02:24:22;;;;;;;11.70;9.63;;;;;;;12.64;94.06;97753.41;4172613;28;20687;-82
2022/09/24 02:26:25;;;;;;;11.40;10.03;;;;;;;12.60;94.09;97759.00;4177538;28;20653;-81
2022/09/24 02:28:29;;;;;;;10.50;9.60;;;;;;;12.57;93.79;97759.25;4177442;28;20749;-82
2022/09/24 02:30:36;;;;;;;11.53;9.37;;;;;;;12.56;93.90;97765.47;4174453;28;20680;-82
2022/09/24 02:32:41;;;;;;;11.27;9.93;;;;;;;12.55;93.84;97769.03;4188448;28;20668;-82
2022/09/24 02:34:46;;;;;;;11.10;10.00;;;;;;;12.52;93.86;97762.25;4168786;28;20732;-82
2022/09/24 02:36:52;;;;;;;10.60;9.60;;;;;;;12.51;93.74;97768.47;4180215;28;20648;-81
2022/09/24 02:38:56;;;;;;;11.43;10.23;;;;;;;12.50;94.75;97765.97;4174825;28;21119;-82
2022/09/24 02:40:59;;;;;;;10.70;9.60;;;;;;;12.48;95.45;97763.47;4174014;28;21007;-82
2022/09/24 02:43:02;;;;;;;10.93;8.50;;;;;;;12.46;95.00;97761.94;4178295;28;20698;-82
2022/09/24 02:45:06;;;;;;;11.20;9.73;;;;;;;12.45;94.39;97755.88;4172765;28;20653;-82
2022/09/24 02:47:09;;;;;;;12.30;9.67;;;;;;;12.46;96.04;97759.31;4175683;28;20666;-82
2022/09/24 02:49:13;;;;;;;13.20;10.63;;;;;;;12.47;95.49;97761.81;4166084;28;20654;-81
2022/09/24 02:51:15;;;;;;;11.10;10.00;;;;;;;12.47;96.25;97766.22;4173884;28;20710;-82
2022/09/24 02:53:20;;;;;;;10.97;9.73;;;;;;;12.46;95.70;97762.78;4192121;28;20747;-82
2022/09/24 02:55:23;;;;;;;13.73;9.80;;;;;;;12.48;94.69;97757.38;4154770;28;21075;-82
2022/09/24 02:57:26;;;;;;;9.70;8.70;;;;;;;12.47;94.98;97750.53;4156541;28;20642;-83
2022/09/24 02:59:29;;;;;;;10.90;9.80;;;;;;;12.50;95.30;97752.88;4176089;28;20653;-82
2022/09/24 03:01:32;;;;;;;11.30;9.50;;;;;;;12.48;95.20;97741.69;4158799;28;20644;-82
2022/09/24 03:03:35;;;;;;;11.33;10.27;;;;;;;12.49;94.52;97748.59;4167252;28;20642;-82
2022/09/24 03:05:38;;;;;;;10.70;9.60;;;;;;;12.47;95.62;97750.53;4171028;28;21102;-82
2022/09/24 03:07:42;;;;;;;12.23;9.90;;;;;;;12.41;95.36;97741.38;4160920;28;20635;-82
2022/09/24 03:09:52;;;;;;;12.70;10.20;;;;;;;12.36;95.40;97758.41;4169943;28;20630;-82
2022/09/24 03:11:55;;;;;;;11.80;9.30;;;;;;;12.33;94.08;97758.66;4176780;28;20642;-82
2022/09/24 03:13:59;;;;;;;13.90;9.90;;;;;;;12.31;95.38;97761.41;4167413;28;20650;-82
2022/09/24 03:16:02;;;;;;;11.20;9.47;;;;;;;12.31;95.07;97760.53;4182555;28;21282;-82
2022/09/24 03:18:06;;;;;;;10.40;9.30;;;;;;;12.33;95.39;97751.63;4191734;28;20731;-82
2022/09/24 03:20:09;;;;;;;11.43;9.23;;;;;;;12.33;94.36;97753.44;4161623;28;20648;-83
2022/09/24 03:22:12;;;;;;;11.03;9.57;;;;;;;12.34;95.62;97750.69;4180146;28;20629;-82
2022/09/24 03:24:15;;;;;;;10.40;9.33;;;;;;;12.36;95.63;97751.38;4181134;28;20653;-82
2022/09/24 03:26:19;;;;;;;10.93;9.83;;;;;;;12.38;94.54;97746.03;4177965;28;20640;-81
2022/09/24 03:28:22;;;;;;;11.07;9.97;;;;;;;12.38;96.55;97735.56;4179973;28;21302;-81
2022/09/24 03:32:47;;;;;;;10.83;9.73;;;;;;;12.37;95.75;97739.97;4161880;28;20749;-81
2022/09/24 03:34:50;;;;;;;13.23;10.30;;;;;;;12.36;95.51;97738.31;4170742;28;20730;-82
2022/09/24 03:36:53;;;;;;;12.23;9.83;;;;;;;12.36;96.43;97734.88;4175866;28;20681;-82
2022/09/24 03:38:57;;;;;;;12.07;9.60;;;;;;;12.34;96.41;97735.00;4186748;28;21027;-82
2022/09/24 03:41:00;;;;;;;12.87;10.00;;;;;;;12.34;96.04;97735.00;4182469;28;20641;-82
2022/09/24 03:43:05;;;;;;;11.97;9.60;;;;;;;12.35;96.21;97730.59;4180253;28;20715;-82
2022/09/24 03:45:09;;;;;;;10.93;9.70;;;;;;;12.36;96.53;97732.25;4182278;28;20657;-82
2022/09/24 03:47:12;;;;;;;10.43;9.43;;;;;;;12.37;95.68;97719.06;4180810;28;20662;-82
2022/09/24 03:49:15;;;;;;;11.87;9.90;;;;;;;12.38;95.16;97722.50;4182360;28;20777;-82
2022/09/24 03:51:19;;;;;;;11.03;9.70;;;;;;;12.36;97.05;97725.22;4175771;28;20657;-82
2022/09/24 03:53:22;;;;;;;15.10;10.10;;;;;;;12.38;96.74;97727.72;4178395;28;21278;-82
2022/09/24 03:55:25;;;;;;;10.93;9.83;;;;;;;12.38;97.12;97733.78;4175309;28;20657;-81
2022/09/24 03:57:28;;;;;;;12.03;9.27;;;;;;;12.39;96.15;97729.41;4178363;28;20669;-83
2022/09/24 03:59:32;;;;;;;9.90;8.90;;;;;;;12.38;95.17;97727.72;4184810;28;20663;-82
2022/09/24 04:01:36;;;;;;;12.23;9.20;;;;;;;12.35;96.08;97725.34;4194793;28;21206;-82
2022/09/24 04:03:39;;;;;;;10.80;9.70;;;;;;;12.36;97.09;97717.38;4182663;28;20748;-82
2022/09/24 04:05:42;;;;;;;9.50;8.60;;;;;;;12.35;95.69;97723.56;4175682;28;20709;-83
2022/09/24 04:07:45;;;;;;;11.07;9.93;;;;;;;12.36;97.25;97727.03;4175158;28;20652;-82
2022/09/24 04:09:48;;;;;;;10.37;9.20;;;;;;;12.36;95.79;97716.56;4170972;28;20736;-82
2022/09/24 04:11:52;;;;;;;9.87;8.90;;;;;;;12.32;95.98;97715.97;4176254;28;20648;-82
2022/09/24 04:13:55;;;;;;;10.93;9.53;;;;;;;12.32;95.47;97712.53;4177794;28;20740;-81
2022/09/24 04:16:03;;;;;;;9.97;8.97;;;;;;;12.32;95.69;97710.75;4192260;28;20689;-82
2022/09/24 04:18:06;;;;;;;10.50;9.40;;;;;;;12.33;96.07;97712.41;4176037;28;20710;-81
2022/09/24 04:20:11;;;;;;;9.97;8.97;;;;;;;12.34;96.97;97713.22;4174753;28;20664;-81
2022/09/24 04:22:14;;;;;;;11.33;9.70;;;;;;;12.34;97.06;97706.22;4178780;28;20690;-82
2022/09/24 04:24:17;;;;;;;10.90;9.53;;;;;;;12.35;96.47;97715.72;4194393;28;21924;-82
2022/09/24 04:26:20;;;;;;;10.27;9.27;;;;;;;12.34;96.24;97710.63;4158118;28;20753;-83
2022/09/24 04:28:24;;;;;;;10.80;9.70;;;;;;;12.32;96.93;97709.91;4171895;28;20749;-82
2022/09/24 04:30:27;;;;;;;10.33;9.20;;;;;;;12.31;95.51;97716.09;4186625;28;20660;-82
2022/09/24 04:32:32;;;;;;;10.70;9.50;;;;;;;12.30;95.80;97702.19;4175999;28;20675;-82
2022/09/24 04:34:35;;;;;;;10.77;9.63;;;;;;;12.32;96.06;97704.69;4154770;28;20670;-83
2022/09/24 04:36:38;;;;;;;10.30;9.30;;;;;;;12.32;95.13;97709.91;4176602;28;20675;-79
2022/09/24 04:38:41;;;;;;;12.70;9.37;;;;;;;12.30;96.95;97704.00;4170446;28;20651;-81
2022/09/24 04:40:46;;;;;;;12.40;9.40;;;;;;;12.32;97.11;97702.06;4180608;28;20701;-81
2022/09/24 04:42:49;;;;;;;9.93;8.93;;;;;;;12.32;96.61;97707.31;4173886;28;20644;-80
2022/09/24 04:44:52;;;;;;;11.47;10.27;;;;;;;12.31;96.71;97709.09;4178026;28;21235;-81
2022/09/24 04:47:01;;;;;;;12.23;10.00;;;;;;;12.31;97.12;97709.09;4157794;28;20696;-84
2022/09/24 04:49:08;;;;;;;10.30;9.20;;;;;;;12.29;95.97;97704.94;4168303;28;20691;-81
2022/09/24 04:51:11;;;;;;;11.50;10.10;;;;;;;12.29;95.32;97704.94;4189484;28;20649;-82
2022/09/24 04:53:14;;;;;;;11.17;9.40;;;;;;;12.26;96.38;97705.19;4192949;28;20736;-81
2022/09/24 04:55:19;;;;;;;10.77;9.73;;;;;;;12.27;97.13;97707.69;4179011;28;20662;-82
2022/09/24 04:57:22;;;;;;;10.73;9.67;;;;;;;12.27;96.24;97704.25;4179015;28;20676;-83
2022/09/24 04:59:25;;;;;;;10.07;9.03;;;;;;;12.28;97.79;97706.72;4177731;28;21266;-82
2022/09/24 05:01:29;;;;;;;12.10;10.40;;;;;;;12.31;96.75;97703.00;4180659;28;20652;-83
2022/09/24 05:03:32;;;;;;;11.93;10.70;;;;;;;12.30;96.80;97699.59;4178153;28;20661;-83
2022/09/24 05:05:36;;;;;;;10.30;9.30;;;;;;;12.31;96.47;97696.03;4174718;28;21230;-83
2022/09/24 05:07:39;;;;;;;10.17;9.07;;;;;;;12.31;96.25;97695.16;4180154;28;21073;-83
2022/09/24 05:09:42;;;;;;;11.43;10.10;;;;;;;12.30;96.08;97696.97;4181037;28;20742;-83
2022/09/24 05:11:45;;;;;;;10.87;9.73;;;;;;;12.29;96.67;97702.31;4167104;28;20645;-82
2022/09/24 05:13:48;;;;;;;10.60;9.60;;;;;;;12.26;96.87;97706.00;4173957;28;20653;-83
2022/09/24 05:15:51;;;;;;;10.90;9.27;;;;;;;12.26;97.78;97710.41;4169083;28;20692;-82
2022/09/24 05:17:54;;;;;;;14.17;10.50;;;;;;;12.25;96.19;97708.75;4181894;28;21027;-83
2022/09/24 05:19:58;;;;;;;11.23;9.90;;;;;;;12.25;97.56;97706.97;4179654;28;20691;-83
2022/09/24 05:22:02;;;;;;;11.10;9.27;;;;;;;12.28;97.20;97700.66;4177141;28;20664;-83
2022/09/24 05:24:06;;;;;;;11.87;10.67;;;;;;;12.29;97.88;97699.72;4181398;28;20722;-82
2022/09/24 05:28:31;;;;;;;15.60;11.13;;;;;;;12.32;97.18;97715.16;4173219;28;20656;-82
2022/09/24 05:30:34;;;;;;;11.77;9.90;;;;;;;12.31;96.93;97708.25;4172722;28;20719;-83
2022/09/24 05:32:39;;;;;;;13.67;10.27;;;;;;;12.31;96.39;97711.72;4181138;28;20737;-83
2022/09/24 05:34:42;;;;;;;16.70;10.37;;;;;;;12.29;96.17;97712.78;4171578;28;21038;-83
2022/09/24 05:36:45;;;;;;;26.60;11.00;;;;;;;12.28;97.02;97713.72;4180857;28;20995;-84
2022/09/24 05:38:49;;;;;;;24.40;11.80;;;;;;;12.25;96.25;97709.59;4176611;28;21102;-83
2022/09/24 05:40:53;;;;;;;16.53;9.97;;;;;;;12.26;96.70;97715.66;4180719;28;20679;-83
2022/09/24 05:43:00;;;;;;;18.27;10.53;;;;;;;12.26;97.02;97726.09;4176814;28;20653;-82
2022/09/24 05:45:03;;;;;;;15.33;10.57;;;;;;;12.26;97.74;97721.69;4180764;28;20652;-83
2022/09/24 05:47:06;;;;;;;11.53;10.33;;;;;;;12.28;96.46;97725.03;4176739;28;20654;-83
2022/09/24 05:49:09;;;;;;;11.57;10.37;;;;;;;12.33;98.37;97722.06;4176799;28;21060;-83
2022/09/24 05:51:12;;;;;;;12.10;10.90;;;;;;;12.37;97.80;97731.28;4180173;28;20690;-82
2022/09/24 05:53:15;;;;;;;12.30;10.77;;;;;;;12.40;96.33;97731.03;4176196;28;20637;-84
2022/09/24 05:55:20;;;;;;;11.60;9.90;;;;;;;12.42;95.76;97726.53;4179650;28;20651;-83
2022/09/24 05:57:23;;;;;;;10.17;9.20;;;;;;;12.44;95.82;97732.47;4187050;28;21296;-82
2022/09/24 05:59:26;;;;;;;11.00;9.90;;;;;;;12.48;97.58;97731.22;4178455;28;20653;-83
2022/09/24 06:01:30;;;;;;;11.10;9.23;;;;;;;12.52;97.64;97735.28;4180879;28;20808;-83
2022/09/24 06:03:33;;;;;;;14.67;10.30;;;;;;;12.56;96.77;97736.69;4177740;28;20663;-83
2022/09/24 06:05:36;;;;;;;10.47;9.43;;;;;;;12.60;96.17;97740.69;4176627;28;21228;-81
2022/09/24 06:07:39;;;;;;;11.17;9.97;;;;;;;12.63;97.32;97738.69;4194794;28;20688;-80
2022/09/24 06:09:43;;;;;;;12.40;9.80;;;;;;;12.68;97.62;97743.53;4183085;28;20745;-80
2022/09/24 06:11:49;;;;;;;11.60;9.50;;;;;;;12.71;97.17;97744.13;4177398;28;20648;-80
2022/09/24 06:13:52;;;;;;;10.57;9.57;;;;;;;12.73;95.60;97748.28;4178809;28;21572;-80
2022/09/24 06:16:00;;;;;;;11.30;10.03;;;;;;;12.76;96.69;97744.56;4180391;28;22017;-80
2022/09/24 06:18:03;;;;;;;11.17;9.83;;;;;;;12.77;96.08;97744.44;4185267;28;21043;-80
2022/09/24 06:20:15;;;;;;;14.40;10.23;;;;;;;12.82;95.14;97744.94;4178111;28;20654;-80
2022/09/24 06:22:19;;;;;;;13.23;9.63;;;;;;;12.87;95.36;97741.91;4191566;28;20645;-80
2022/09/24 06:24:25;;;;;;;11.40;10.30;;;;;;;12.93;95.28;97737.00;4175873;28;20644;-80
2022/09/24 06:26:28;;;;;;;11.90;9.70;;;;;;;12.97;95.41;97746.25;4177794;28;20645;-81
2022/09/24 06:28:33;;;;;;;11.43;9.73;;;;;;;13.05;95.48;97743.00;4177535;28;20652;-80
2022/09/24 06:30:37;;;;;;;12.40;10.87;;;;;;;13.05;94.74;97743.84;4176625;28;20773;-80
2022/09/24 06:32:40;;;;;;;17.73;10.87;;;;;;;13.07;95.20;97752.41;4178198;28;20645;-80
2022/09/24 06:34:43;;;;;;;13.67;10.83;;;;;;;13.07;93.77;97739.31;4180568;28;21096;-80
2022/09/24 06:36:46;;;;;;;15.33;11.70;;;;;;;13.08;94.98;97753.22;4181162;28;20757;-80
2022/09/24 06:38:51;;;;;;;17.20;12.30;;;;;;;13.07;94.31;97746.34;4178543;28;20652;-80
2022/09/24 06:40:58;;;;;;;29.00;16.93;;;;;;;13.09;94.89;97745.22;4193512;28;20643;-81
2022/09/24 06:43:01;;;;;;;25.57;15.93;;;;;;;13.11;95.38;97751.19;4174140;28;20644;-80
2022/09/24 06:45:07;;;;;;;20.70;13.70;;;;;;;13.11;94.05;97753.81;4175122;28;20676;-80
2022/09/24 06:47:11;;;;;;;18.37;12.50;;;;;;;13.16;94.63;97758.66;4176879;28;21435;-81
2022/09/24 06:49:14;;;;;;;15.20;12.27;;;;;;;13.17;94.55;97760.28;4172594;28;20686;-80
2022/09/24 06:51:17;;;;;;;24.60;14.57;;;;;;;13.19;95.72;97759.22;4180524;28;20697;-80
2022/09/24 06:53:20;;;;;;;15.03;11.57;;;;;;;13.24;96.06;97767.50;4178533;28;21023;-80
2022/09/24 06:55:23;;;;;;;12.27;10.97;;;;;;;13.28;95.63;97766.31;4173770;28;21228;-81
2022/09/24 06:57:27;;;;;;;18.33;10.47;;;;;;;13.33;95.87;97771.97;4193999;28;20687;-80
2022/09/24 06:59:30;;;;;;;14.00;10.60;;;;;;;13.40;96.17;97765.28;4176134;28;20637;-81
2022/09/24 07:01:35;;;;;;;11.40;10.30;;;;;;;13.47;95.74;97776.88;4176375;28;21276;-81
2022/09/24 07:03:39;;;;;;;11.57;10.53;;;;;;;13.55;95.67;97774.47;4178920;28;20653;-81
2022/09/24 07:05:42;;;;;;;11.23;10.13;;;;;;;13.59;94.44;97770.59;4179104;28;20656;-80
2022/09/24 07:07:46;;;;;;;15.47;10.17;;;;;;;13.64;94.64;97781.53;4178130;28;20692;-81
2022/09/24 07:09:49;;;;;;;14.83;10.03;;;;;;;13.68;94.44;97781.13;4170659;28;20637;-81
2022/09/24 07:11:51;;;;;;;11.23;10.13;;;;;;;13.70;94.28;97782.66;4174511;28;21245;-81
2022/09/24 07:13:54;;;;;;;10.90;9.80;;;;;;;13.73;94.16;97781.56;4178850;28;20676;-81
2022/09/24 07:16:00;;;;;;;12.27;10.97;;;;;;;13.72;93.52;97782.53;4177356;28;21461;-81
2022/09/24 07:18:04;;;;;;;12.03;10.83;;;;;;;13.77;93.67;97786.41;4175352;28;20746;-81
2022/09/24 07:20:08;;;;;;;14.17;12.43;;;;;;;13.85;94.27;97785.75;4175239;28;20653;-81
2022/09/24 07:22:11;;;;;;;13.47;11.50;;;;;;;13.93;94.37;97785.94;4173038;28;21213;-81
2022/09/24 07:24:14;;;;;;;12.23;10.90;;;;;;;13.99;93.96;97774.91;4172592;28;21205;-81
2022/09/24 07:26:17;;;;;;;10.77;9.63;;;;;;;14.03;93.39;97781.56;4170729;28;20647;-81
2022/09/24 07:28:20;;;;;;;14.17;12.53;;;;;;;14.09;92.84;97783.66;4174055;28;20643;-81
2022/09/24 07:30:26;;;;;;;13.80;12.40;;;;;;;14.15;93.19;97792.66;4174929;28;20688;-81
2022/09/24 07:32:29;;;;;;;16.83;15.13;;;;;;;14.23;93.11;97790.19;4173030;28;20655;-81
2022/09/24 07:34:34;;;;;;;34.70;31.00;;;;;;;14.30;93.09;97785.25;4174449;28;20669;-81
2022/09/24 07:36:37;;;;;;;22.13;19.67;;;;;;;14.34;93.00;97794.50;4180985;28;21084;-81
2022/09/24 07:38:40;;;;;;;21.53;19.40;;;;;;;14.38;92.92;97794.09;4177470;28;20632;-81
2022/09/24 07:40:43;;;;;;;14.73;13.23;;;;;;;14.46;93.91;97803.91;4179108;28;20722;-82
2022/09/24 07:42:47;;;;;;;11.23;10.13;;;;;;;14.51;93.50;97805.19;4176160;28;20752;-81
2022/09/24 07:44:50;;;;;;;11.53;10.40;;;;;;;14.55;93.12;97808.34;4174060;28;21523;-81
2022/09/24 07:46:53;;;;;;;12.40;11.10;;;;;;;14.58;92.87;97808.91;4174931;28;20650;-81
2022/09/24 07:48:56;;;;;;;12.90;11.60;;;;;;;14.61;93.41;97817.34;4173163;28;20674;-81
2022/09/24 07:51:00;;;;;;;12.60;11.30;;;;;;;14.64;93.34;97810.97;4160809;28;21271;-82
2022/09/24 07:53:03;;;;;;;12.30;11.20;;;;;;;14.64;92.04;97814.44;4179347;28;20645;-81
2022/09/24 07:55:08;;;;;;;12.40;11.17;;;;;;;14.68;91.98;97823.69;4173108;28;21072;-81
2022/09/24 07:57:12;;;;;;;13.57;11.50;;;;;;;14.73;93.05;97818.03;4175561;28;20697;-81
2022/09/24 07:59:15;;;;;;;13.57;11.93;;;;;;;14.77;92.48;97822.88;4175188;28;20646;-82
2022/09/24 08:01:19;;;;;;;12.23;11.03;;;;;;;14.80;92.08;97822.59;4164026;28;20737;-81
2022/09/24 08:03:22;;;;;;;12.47;11.27;;;;;;;14.85;92.03;97825.63;4176571;28;20692;-82
2022/09/24 08:05:25;;;;;;;11.63;10.53;;;;;;;14.89;91.43;97820.97;4172581;28;21327;-81
2022/09/24 08:07:29;;;;;;;13.57;11.03;;;;;;;14.91;90.08;97824.28;4173123;28;21116;-82
2022/09/24 08:09:32;;;;;;;13.37;12.07;;;;;;;14.93;91.11;97823.19;4173982;28;21200;-81
2022/09/24 08:11:35;;;;;;;12.70;11.40;;;;;;;14.96;91.69;97828.16;4168065;28;21175;-81
2022/09/24 08:13:38;;;;;;;13.17;11.83;;;;;;;15.04;92.28;97835.34;4193338;28;20687;-81
2022/09/24 08:15:41;;;;;;;13.93;12.43;;;;;;;15.08;91.21;97832.31;4155301;28;21309;-82
2022/09/24 08:17:45;;;;;;;13.40;12.03;;;;;;;15.12;91.64;97841.56;4177366;28;20680;-81
2022/09/24 08:19:48;;;;;;;14.87;12.40;;;;;;;15.17;91.79;97836.75;4177973;28;20674;-82
2022/09/24 08:21:52;;;;;;;12.40;11.20;;;;;;;15.20;93.23;97831.22;4166501;28;20666;-81
2022/09/24 08:23:57;;;;;;;13.63;12.33;;;;;;;15.24;90.67;97827.34;4177965;28;20708;-81
2022/09/24 08:26:00;;;;;;;13.13;11.90;;;;;;;15.26;91.95;97844.63;4164757;28;20659;-81
2022/09/24 08:28:03;;;;;;;13.63;12.30;;;;;;;15.30;90.91;97842.53;4189351;28;20688;-81
2022/09/24 08:30:08;;;;;;;13.33;12.00;;;;;;;15.30;89.96;97827.59;4180251;28;20666;-81
2022/09/24 08:32:11;;;;;;;14.57;11.43;;;;;;;15.34;90.35;97830.81;4176957;28;20646;-81
2022/09/24 08:34:15;;;;;;;14.83;12.20;;;;;;;15.38;90.23;97826.91;4160823;28;20691;-81
2022/09/24 08:36:18;;;;;;;13.50;12.10;;;;;;;15.39;91.47;97826.75;4173090;28;20667;-81
2022/09/24 08:38:21;;;;;;;14.13;12.63;;;;;;;15.40;90.62;97827.59;4170738;28;21015;-81
2022/09/24 08:40:28;;;;;;;13.33;12.00;;;;;;;15.44;90.45;97828.97;4175421;28;20701;-80
2022/09/24 08:42:37;;;;;;;14.60;12.83;;;;;;;15.47;89.62;97829.53;4181387;28;21301;-80
2022/09/24 08:49:27;;;;;;;15.73;13.67;;;;;;;15.62;91.99;97839.47;4196068;28;21157;-81
2022/09/24 08:51:36;;;;;;;16.70;15.00;;;;;;;15.70;90.67;97842.22;4179897;28;21318;-82
2022/09/24 08:53:45;;;;;;;17.50;15.20;;;;;;;15.77;92.88;97839.81;4179146;28;20654;-82
2022/09/24 08:55:51;;;;;;;18.17;16.30;;;;;;;15.82;91.15;97833.19;4181558;28;20646;-80
2022/09/24 08:57:59;;;;;;;19.70;15.90;;;;;;;15.90;90.92;97835.91;4192232;28;20670;-81
2022/09/24 09:00:03;;;;;;;17.53;15.67;;;;;;;15.96;90.41;97840.59;4171279;28;20647;-82
2022/09/24 09:02:17;;;;;;;16.60;14.23;;;;;;;16.04;90.68;97846.81;4179399;28;20661;-81
2022/09/24 09:04:25;;;;;;;15.10;13.60;;;;;;;16.17;90.46;97841.22;4177772;28;21049;-81
2022/09/24 09:06:52;;;;;;;16.57;14.87;;;;;;;16.48;90.33;97845.25;4178830;28;20654;-81
2022/09/24 09:09:00;;;;;;;15.57;13.73;;;;;;;16.76;89.54;97843.25;4177931;28;20651;-81
2022/09/24 09:11:22;;;;;;;16.47;14.77;;;;;;;16.83;87.47;97844.34;4177394;28;21098;-81
2022/09/24 09:13:28;;;;;;;17.97;14.60;;;;;;;16.74;85.90;97839.97;4159431;28;21264;-81
2022/09/24 09:15:33;;;;;;;15.13;13.60;;;;;;;16.72;86.45;97839.28;4170444;28;20647;-81
2022/09/24 09:17:44;;;;;;;14.87;13.37;;;;;;;16.81;86.64;97837.56;4176200;28;21100;-81
2022/09/24 09:19:51;;;;;;;15.70;14.13;;;;;;;16.89;86.47;97841.09;4158900;28;21113;-81
2022/09/24 09:21:57;;;;;;;16.03;14.30;;;;;;;16.95;85.51;97840.50;4173604;28;20709;-81
2022/09/24 09:24:01;;;;;;;17.50;14.90;;;;;;;17.05;86.08;97849.19;4166756;28;20637;-81
2022/09/24 09:26:05;;;;;;;16.93;15.27;;;;;;;17.19;85.38;97852.09;4175346;28;20625;-81
2022/09/24 09:28:14;;;;;;;16.07;14.40;;;;;;;17.27;84.50;97856.66;4176996;28;20713;-82
2022/09/24 09:30:19;;;;;;;15.93;14.37;;;;;;;17.34;84.06;97860.34;4178171;28;20690;-80
2022/09/24 09:32:31;;;;;;;17.27;14.70;;;;;;;17.50;84.27;97858.69;4191179;28;20687;-82
2022/09/24 09:34:49;;;;;;;16.80;15.20;;;;;;;17.82;85.30;97861.56;4177459;28;20757;-80
2022/09/24 09:37:03;;;;;;;16.50;14.80;;;;;;;18.06;83.95;97862.53;4157028;28;21044;-81
2022/09/24 09:39:20;;;;;;;15.67;14.07;;;;;;;18.17;81.83;97857.03;4160711;28;20635;-81
2022/09/24 09:41:29;;;;;;;16.50;14.90;;;;;;;18.25;82.03;97852.63;4166570;28;20738;-81
2022/09/24 09:43:34;;;;;;;17.53;15.60;;;;;;;18.19;79.51;97853.25;4191180;28;20648;-81
2022/09/24 09:45:42;;;;;;;17.43;15.40;;;;;;;18.19;79.04;97847.97;4178805;28;20640;-81
2022/09/24 09:47:47;;;;;;;16.13;14.43;;;;;;;18.38;80.00;97852.19;4169677;28;21090;-81